sensor_id;sensor_type;location;lat;lon;timestamp;pressure;altitude;pressure_sealevel;temperature;humidity
4590;BME280;2307;48.448;9.216;2023-11-21T00:01:39;94903.22;;;7.70;100.00
4590;BME280;2307;48.448;9.216;2023-11-21T00:04:07;94919.31;;;7.73;100.00
4590;BME280;2307;48.448;9.216;2023-11-21T00:06:34;94909.16;;;7.77;100.00
4590;BME280;2307;48.448;9.216;2023-11-21T00:09:00;94905.94;;;7.75;100.00
4590;BME280;2307;48.448;9.216;2023-11-21T00:11:27;94905.47;;;7.78;100.00
4590;BME280;2307;48.448;9.216;2023-11-21T00:13:54;94909.25;;;7.82;100.00
4590;BME280;2307;48.448;9.216;2023-11-21T00:16:20;94910.97;;;7.88;100.00
4590;BME280;2307;48.448;9.216;2023-11-21T00:18:47;94908.91;;;7.90;100.00
4590;BME280;2307;48.448;9.216;2023-11-21T00:21:15;94913.69;;;7.93;100.00
4590;BME280;2307;48.448;9.216;2023-11-21T00:23:41;94904.22;;;7.92;100.00
4590;BME280;2307;48.448;9.216;2023-11-21T00:26:07;94896.91;;;7.94;100.00
4590;BME280;2307;48.448;9.216;2023-11-21T00:28:34;94903.31;;;7.98;100.00
4590;BME280;2307;48.448;9.216;2023-11-21T00:31:00;94894.84;;;7.96;100.00
4590;BME280;2307;48.448;9.216;2023-11-21T00:33:27;94888.34;;;7.98;100.00
4590;BME280;2307;48.448;9.216;2023-11-21T00:35:53;94892.53;;;7.99;100.00
4590;BME280;2307;48.448;9.216;2023-11-21T00:38:21;94893.34;;;8.00;100.00
4590;BME280;2307;48.448;9.216;2023-11-21T00:40:47;94886.06;;;8.02;100.00
4590;BME280;2307;48.448;9.216;2023-11-21T00:43:13;94887.28;;;7.99;100.00
4590;BME280;2307;48.448;9.216;2023-11-21T00:45:40;94885.38;;;7.95;100.00
4590;BME280;2307;48.448;9.216;2023-11-21T00:48:06;94882.84;;;8.00;100.00
4590;BME280;2307;48.448;9.216;2023-11-21T00:50:33;94877.91;;;8.03;100.00
4590;BME280;2307;48.448;9.216;2023-11-21T00:52:59;94883.88;;;7.99;100.00
4590;BME280;2307;48.448;9.216;2023-11-21T00:55:28;94875.19;;;7.98;100.00
4590;BME280;2307;48.448;9.216;2023-11-21T00:57:55;94878.28;;;7.95;100.00
4590;BME280;2307;48.448;9.216;2023-11-21T01:00:21;94881.13;;;7.94;100.00
4590;BME280;2307;48.448;9.216;2023-11-21T01:02:48;94887.53;;;7.98;100.00
4590;BME280;2307;48.448;9.216;2023-11-21T01:05:15;94867.88;;;8.00;100.00
4590;BME280;2307;48.448;9.216;2023-11-21T01:07:41;94867.88;;;8.00;100.00
4590;BME280;2307;48.448;9.216;2023-11-21T01:10:08;94873.13;;;8.00;100.00
4590;BME280;2307;48.448;9.216;2023-11-21T01:12:36;94871.97;;;7.96;100.00
4590;BME280;2307;48.448;9.216;2023-11-21T01:15:03;94863.88;;;7.98;100.00
4590;BME280;2307;48.448;9.216;2023-11-21T01:17:32;94868.31;;;7.97;100.00
4590;BME280;2307;48.448;9.216;2023-11-21T01:19:59;94861.25;;;7.98;100.00
4590;BME280;2307;48.448;9.216;2023-11-21T01:22:25;94863.88;;;7.98;100.00
4590;BME280;2307;48.448;9.216;2023-11-21T01:24:53;94864.44;;;8.00;100.00
4590;BME280;2307;48.448;9.216;2023-11-21T01:27:19;94862.00;;;8.10;100.00
4590;BME280;2307;48.448;9.216;2023-11-21T01:29:47;94849.66;;;8.11;100.00
4590;BME280;2307;48.448;9.216;2023-11-21T01:32:13;94849.31;;;8.07;100.00
4590;BME280;2307;48.448;9.216;2023-11-21T01:34:40;94846.22;;;8.10;100.00
4590;BME280;2307;48.448;9.216;2023-11-21T01:37:06;94843.81;;;8.09;100.00
4590;BME280;2307;48.448;9.216;2023-11-21T01:39:33;94848.88;;;8.10;100.00
4590;BME280;2307;48.448;9.216;2023-11-21T01:42:01;94845.69;;;8.08;100.00
4590;BME280;2307;48.448;9.216;2023-11-21T01:44:28;94840.63;;;8.07;100.00
4590;BME280;2307;48.448;9.216;2023-11-21T01:46:55;94837.13;;;8.01;100.00
4590;BME280;2307;48.448;9.216;2023-11-21T01:49:22;94842.84;;;7.98;100.00
4590;BME280;2307;48.448;9.216;2023-11-21T01:51:49;94859.63;;;7.97;100.00
4590;BME280;2307;48.448;9.216;2023-11-21T01:54:16;94853.22;;;7.93;100.00
4590;BME280;2307;48.448;9.216;2023-11-21T01:56:43;94837.00;;;7.96;100.00
4590;BME280;2307;48.448;9.216;2023-11-21T01:59:11;94841.22;;;7.97;100.00
4590;BME280;2307;48.448;9.216;2023-11-21T02:01:40;94845.94;;;7.95;100.00
4590;BME280;2307;48.448;9.216;2023-11-21T02:04:08;94842.84;;;7.98;100.00
4590;BME280;2307;48.448;9.216;2023-11-21T02:06:34;94830.84;;;8.02;100.00
4590;BME280;2307;48.448;9.216;2023-11-21T02:09:01;94838.72;;;8.02;100.00
4590;BME280;2307;48.448;9.216;2023-11-21T02:11:29;94836.31;;;8.00;100.00
4590;BME280;2307;48.448;9.216;2023-11-21T02:13:56;94843.50;;;8.05;100.00
4590;BME280;2307;48.448;9.216;2023-11-21T02:16:24;94845.91;;;8.07;100.00
4590;BME280;2307;48.448;9.216;2023-11-21T02:18:52;94841.09;;;8.03;100.00
4590;BME280;2307;48.448;9.216;2023-11-21T02:21:20;94831.28;;;7.99;100.00
4590;BME280;2307;48.448;9.216;2023-11-21T02:23:48;94828.75;;;8.04;100.00
4590;BME280;2307;48.448;9.216;2023-11-21T02:26:16;94828.50;;;8.06;100.00
4590;BME280;2307;48.448;9.216;2023-11-21T02:28:42;94819.13;;;8.10;100.00
4590;BME280;2307;48.448;9.216;2023-11-21T02:31:09;94821.66;;;8.05;100.00
4590;BME280;2307;48.448;9.216;2023-11-21T02:33:35;94827.47;;;8.07;100.00
4590;BME280;2307;48.448;9.216;2023-11-21T02:36:02;94832.53;;;8.08;100.00
4590;BME280;2307;48.448;9.216;2023-11-21T02:38:29;94841.19;;;8.09;100.00
4590;BME280;2307;48.448;9.216;2023-11-21T02:40:57;94840.88;;;7.93;100.00
4590;BME280;2307;48.448;9.216;2023-11-21T02:43:24;94842.25;;;7.96;100.00
4590;BME280;2307;48.448;9.216;2023-11-21T02:45:50;94842.00;;;8.09;100.00
4590;BME280;2307;48.448;9.216;2023-11-21T02:48:16;94827.13;;;8.15;100.00
4590;BME280;2307;48.448;9.216;2023-11-21T02:50:43;94833.97;;;8.16;100.00
4590;BME280;2307;48.448;9.216;2023-11-21T02:53:09;94833.16;;;8.15;100.00
4590;BME280;2307;48.448;9.216;2023-11-21T02:55:36;94825.94;;;8.22;100.00
4590;BME280;2307;48.448;9.216;2023-11-21T02:58:04;94829.63;;;8.21;100.00
4590;BME280;2307;48.448;9.216;2023-11-21T03:00:31;94822.78;;;8.20;100.00
4590;BME280;2307;48.448;9.216;2023-11-21T03:02:57;94824.94;;;8.23;100.00
4590;BME280;2307;48.448;9.216;2023-11-21T03:05:24;94833.63;;;8.24;100.00
4590;BME280;2307;48.448;9.216;2023-11-21T03:07:50;94836.25;;;8.24;100.00
4590;BME280;2307;48.448;9.216;2023-11-21T03:10:16;94842.66;;;8.28;100.00
4590;BME280;2307;48.448;9.216;2023-11-21T03:12:44;94828.13;;;8.25;100.00
4590;BME280;2307;48.448;9.216;2023-11-21T03:15:12;94833.63;;;8.24;100.00
4590;BME280;2307;48.448;9.216;2023-11-21T03:17:38;94837.06;;;8.24;100.00
4590;BME280;2307;48.448;9.216;2023-11-21T03:20:06;94833.53;;;8.30;100.00
4590;BME280;2307;48.448;9.216;2023-11-21T03:22:35;94826.66;;;8.29;100.00
4590;BME280;2307;48.448;9.216;2023-11-21T03:25:02;94835.34;;;8.30;100.00
4590;BME280;2307;48.448;9.216;2023-11-21T03:27:29;94827.22;;;8.31;100.00
4590;BME280;2307;48.448;9.216;2023-11-21T03:29:56;94834.53;;;8.29;100.00
4590;BME280;2307;48.448;9.216;2023-11-21T03:32:23;94833.75;;;8.29;100.00
4590;BME280;2307;48.448;9.216;2023-11-21T03:34:53;94840.38;;;8.31;100.00
4590;BME280;2307;48.448;9.216;2023-11-21T03:37:20;94828.59;;;8.34;100.00
4590;BME280;2307;48.448;9.216;2023-11-21T03:39:47;94833.59;;;8.35;100.00
4590;BME280;2307;48.448;9.216;2023-11-21T03:42:13;94833.13;;;8.38;100.00
4590;BME280;2307;48.448;9.216;2023-11-21T03:44:39;94836.09;;;8.42;100.00
4590;BME280;2307;48.448;9.216;2023-11-21T03:47:06;94835.28;;;8.41;100.00
4590;BME280;2307;48.448;9.216;2023-11-21T03:49:34;94826.94;;;8.44;100.00
4590;BME280;2307;48.448;9.216;2023-11-21T03:52:00;94829.09;;;8.47;100.00
4590;BME280;2307;48.448;9.216;2023-11-21T03:54:27;94829.47;;;8.39;100.00
4590;BME280;2307;48.448;9.216;2023-11-21T03:56:53;94827.88;;;8.38;100.00
4590;BME280;2307;48.448;9.216;2023-11-21T03:59:20;94826.06;;;8.39;100.00
4590;BME280;2307;48.448;9.216;2023-11-21T04:01:49;94832.13;;;8.28;100.00
4590;BME280;2307;48.448;9.216;2023-11-21T04:04:15;94834.06;;;8.32;100.00
4590;BME280;2307;48.448;9.216;2023-11-21T04:06:43;94838.31;;;8.22;100.00
4590;BME280;2307;48.448;9.216;2023-11-21T04:09:10;94838.88;;;8.24;100.00
4590;BME280;2307;48.448;9.216;2023-11-21T04:11:37;94834.97;;;8.26;100.00
4590;BME280;2307;48.448;9.216;2023-11-21T04:14:04;94841.84;;;8.27;100.00
4590;BME280;2307;48.448;9.216;2023-11-21T04:16:30;94847.13;;;8.27;100.00
4590;BME280;2307;48.448;9.216;2023-11-21T04:18:57;94842.13;;;8.14;100.00
4590;BME280;2307;48.448;9.216;2023-11-21T04:21:23;94837.19;;;8.18;100.00
4590;BME280;2307;48.448;9.216;2023-11-21T04:23:51;94841.75;;;8.22;100.00
4590;BME280;2307;48.448;9.216;2023-11-21T04:26:17;94843.91;;;8.25;100.00
4590;BME280;2307;48.448;9.216;2023-11-21T04:28:44;94841.03;;;8.27;100.00
4590;BME280;2307;48.448;9.216;2023-11-21T04:31:10;94845.88;;;8.30;100.00
4590;BME280;2307;48.448;9.216;2023-11-21T04:33:37;94842.78;;;8.33;100.00
4590;BME280;2307;48.448;9.216;2023-11-21T04:36:03;94850.53;;;8.39;100.00
4590;BME280;2307;48.448;9.216;2023-11-21T04:38:30;94852.50;;;8.32;100.00
4590;BME280;2307;48.448;9.216;2023-11-21T04:40:57;94853.84;;;8.35;100.00
4590;BME280;2307;48.448;9.216;2023-11-21T04:43:24;94854.19;;;8.38;100.00
4590;BME280;2307;48.448;9.216;2023-11-21T04:45:50;94848.38;;;8.36;100.00
4590;BME280;2307;48.448;9.216;2023-11-21T04:48:17;94854.66;;;8.35;100.00
4590;BME280;2307;48.448;9.216;2023-11-21T04:50:43;94863.09;;;8.37;100.00
4590;BME280;2307;48.448;9.216;2023-11-21T04:53:09;94861.41;;;8.31;100.00
4590;BME280;2307;48.448;9.216;2023-11-21T04:55:38;94861.41;;;8.31;100.00
4590;BME280;2307;48.448;9.216;2023-11-21T04:58:06;94868.84;;;8.34;100.00
4590;BME280;2307;48.448;9.216;2023-11-21T05:00:33;94870.44;;;8.35;100.00
4590;BME280;2307;48.448;9.216;2023-11-21T05:03:01;94865.72;;;8.37;100.00
4590;BME280;2307;48.448;9.216;2023-11-21T05:05:28;94873.41;;;8.39;100.00
4590;BME280;2307;48.448;9.216;2023-11-21T05:07:55;94877.06;;;8.38;100.00
4590;BME280;2307;48.448;9.216;2023-11-21T05:10:22;94868.28;;;8.32;100.00
4590;BME280;2307;48.448;9.216;2023-11-21T05:12:48;94870.69;;;8.34;100.00
4590;BME280;2307;48.448;9.216;2023-11-21T05:15:17;94869.78;;;8.28;100.00
4590;BME280;2307;48.448;9.216;2023-11-21T05:17:43;94868.28;;;8.32;100.00
4590;BME280;2307;48.448;9.216;2023-11-21T05:20:11;94871.72;;;8.33;100.00
4590;BME280;2307;48.448;9.216;2023-11-21T05:22:39;94873.53;;;8.32;100.00
4590;BME280;2307;48.448;9.216;2023-11-21T05:25:07;94873.53;;;8.32;100.00
4590;BME280;2307;48.448;9.216;2023-11-21T05:27:33;94875.63;;;8.30;100.00
4590;BME280;2307;48.448;9.216;2023-11-21T05:30:00;94881.09;;;8.29;100.00
4590;BME280;2307;48.448;9.216;2023-11-21T05:32:28;94886.25;;;8.12;100.00
4590;BME280;2307;48.448;9.216;2023-11-21T05:34:55;94880.97;;;8.12;100.00
4590;BME280;2307;48.448;9.216;2023-11-21T05:37:21;94886.38;;;8.17;100.00
4590;BME280;2307;48.448;9.216;2023-11-21T05:39:48;94888.88;;;8.12;100.00
4590;BME280;2307;48.448;9.216;2023-11-21T05:42:14;94899.06;;;8.20;100.00
4590;BME280;2307;48.448;9.216;2023-11-21T05:44:42;94903.50;;;8.20;100.00
4590;BME280;2307;48.448;9.216;2023-11-21T05:47:09;94896.63;;;8.19;100.00
4590;BME280;2307;48.448;9.216;2023-11-21T05:49:37;94896.75;;;8.24;100.00
4590;BME280;2307;48.448;9.216;2023-11-21T05:52:03;94895.50;;;8.26;100.00
4590;BME280;2307;48.448;9.216;2023-11-21T05:54:30;94904.09;;;8.33;100.00
4590;BME280;2307;48.448;9.216;2023-11-21T05:56:56;94906.81;;;8.27;100.00
4590;BME280;2307;48.448;9.216;2023-11-21T05:59:23;94903.28;;;8.21;100.00
4590;BME280;2307;48.448;9.216;2023-11-21T06:01:49;94904.19;;;8.15;100.00
4590;BME280;2307;48.448;9.216;2023-11-21T06:04:15;94900.31;;;8.18;100.00
4590;BME280;2307;48.448;9.216;2023-11-21T06:06:44;94905.66;;;8.23;100.00
4590;BME280;2307;48.448;9.216;2023-11-21T06:09:11;94909.44;;;8.27;100.00
4590;BME280;2307;48.448;9.216;2023-11-21T06:11:38;94901.47;;;8.33;100.00
4590;BME280;2307;48.448;9.216;2023-11-21T06:14:04;94908.22;;;8.29;100.00
4590;BME280;2307;48.448;9.216;2023-11-21T06:16:33;94904.09;;;8.33;100.00
4590;BME280;2307;48.448;9.216;2023-11-21T06:18:59;94918.25;;;8.32;100.00
4590;BME280;2307;48.448;9.216;2023-11-21T06:21:26;94925.59;;;8.30;100.00
4590;BME280;2307;48.448;9.216;2023-11-21T06:23:54;94930.06;;;8.30;100.00
4590;BME280;2307;48.448;9.216;2023-11-21T06:26:22;94923.31;;;8.34;100.00
4590;BME280;2307;48.448;9.216;2023-11-21T06:28:49;94930.06;;;8.30;100.00
4590;BME280;2307;48.448;9.216;2023-11-21T06:31:16;94931.97;;;8.34;100.00
4590;BME280;2307;48.448;9.216;2023-11-21T06:33:42;94936.56;;;8.39;100.00
4590;BME280;2307;48.448;9.216;2023-11-21T06:36:09;94946.06;;;8.40;100.00
4590;BME280;2307;48.448;9.216;2023-11-21T06:38:36;94944.19;;;8.40;100.00
4590;BME280;2307;48.448;9.216;2023-11-21T06:41:04;94952.09;;;8.40;100.00
4590;BME280;2307;48.448;9.216;2023-11-21T06:43:31;94942.38;;;8.41;100.00
4590;BME280;2307;48.448;9.216;2023-11-21T06:45:57;94949.38;;;8.35;100.00
4590;BME280;2307;48.448;9.216;2023-11-21T06:48:23;94956.25;;;8.36;100.00
4590;BME280;2307;48.448;9.216;2023-11-21T06:50:50;94962.31;;;8.37;100.00
4590;BME280;2307;48.448;9.216;2023-11-21T06:53:17;94962.06;;;8.38;100.00
4590;BME280;2307;48.448;9.216;2023-11-21T06:55:43;94960.25;;;8.39;100.00
4590;BME280;2307;48.448;9.216;2023-11-21T06:58:11;94958.41;;;8.39;100.00
4590;BME280;2307;48.448;9.216;2023-11-21T07:00:39;94959.56;;;8.43;100.00
4590;BME280;2307;48.448;9.216;2023-11-21T07:03:06;94969.50;;;8.41;100.00
4590;BME280;2307;48.448;9.216;2023-11-21T07:05:32;94962.19;;;8.43;100.00
4590;BME280;2307;48.448;9.216;2023-11-21T07:07:59;94969.97;;;8.38;100.00
4590;BME280;2307;48.448;9.216;2023-11-21T07:10:29;94968.00;;;8.45;100.00
4590;BME280;2307;48.448;9.216;2023-11-21T07:12:55;94976.03;;;8.39;100.00
4590;BME280;2307;48.448;9.216;2023-11-21T07:15:23;94984.25;;;8.31;100.00
4590;BME280;2307;48.448;9.216;2023-11-21T07:17:51;94984.50;;;8.29;100.00
4590;BME280;2307;48.448;9.216;2023-11-21T07:20:19;94989.63;;;8.24;100.00
4590;BME280;2307;48.448;9.216;2023-11-21T07:22:46;94995.59;;;8.08;100.00
4590;BME280;2307;48.448;9.216;2023-11-21T07:25:13;94996.25;;;8.15;100.00
4590;BME280;2307;48.448;9.216;2023-11-21T07:27:39;94986.88;;;8.19;100.00
4590;BME280;2307;48.448;9.216;2023-11-21T07:30:06;94985.94;;;8.25;100.00
4590;BME280;2307;48.448;9.216;2023-11-21T07:32:36;94985.88;;;8.32;100.00
4590;BME280;2307;48.448;9.216;2023-11-21T07:35:04;94986.75;;;8.37;100.00
4590;BME280;2307;48.448;9.216;2023-11-21T07:37:33;94985.28;;;8.41;100.00
4590;BME280;2307;48.448;9.216;2023-11-21T07:39:59;94988.59;;;8.48;100.00
4590;BME280;2307;48.448;9.216;2023-11-21T07:42:25;94987.56;;;8.49;100.00
4590;BME280;2307;48.448;9.216;2023-11-21T07:44:52;94987.22;;;8.58;100.00
4590;BME280;2307;48.448;9.216;2023-11-21T07:47:18;94992.25;;;8.59;100.00
4590;BME280;2307;48.448;9.216;2023-11-21T07:49:46;94993.72;;;8.67;100.00
4590;BME280;2307;48.448;9.216;2023-11-21T07:52:12;94995.41;;;8.73;100.00
4590;BME280;2307;48.448;9.216;2023-11-21T07:54:41;94987.28;;;8.74;100.00
4590;BME280;2307;48.448;9.216;2023-11-21T07:57:07;94986.00;;;8.77;100.00
4590;BME280;2307;48.448;9.216;2023-11-21T07:59:34;94997.09;;;8.79;100.00
4590;BME280;2307;48.448;9.216;2023-11-21T08:02:00;94993.72;;;8.67;100.00
4590;BME280;2307;48.448;9.216;2023-11-21T08:04:27;95001.72;;;8.72;100.00
4590;BME280;2307;48.448;9.216;2023-11-21T08:06:54;94998.16;;;8.78;100.00
4590;BME280;2307;48.448;9.216;2023-11-21T08:09:20;94998.16;;;8.78;100.00
4590;BME280;2307;48.448;9.216;2023-11-21T08:11:48;95001.34;;;8.80;100.00
4590;BME280;2307;48.448;9.216;2023-11-21T08:14:15;95007.97;;;8.82;100.00
4590;BME280;2307;48.448;9.216;2023-11-21T08:16:41;95010.75;;;8.76;100.00
4590;BME280;2307;48.448;9.216;2023-11-21T08:19:08;95008.91;;;8.76;100.00
4590;BME280;2307;48.448;9.216;2023-11-21T08:21:35;95018.09;;;8.74;100.00
4590;BME280;2307;48.448;9.216;2023-11-21T08:24:03;95014.31;;;8.70;100.00
4590;BME280;2307;48.448;9.216;2023-11-21T08:26:30;95021.06;;;8.77;100.00
4590;BME280;2307;48.448;9.216;2023-11-21T08:28:56;95024.25;;;8.79;100.00
4590;BME280;2307;48.448;9.216;2023-11-21T08:31:26;95028.09;;;8.88;100.00
4590;BME280;2307;48.448;9.216;2023-11-21T08:33:52;95029.50;;;8.91;100.00
4590;BME280;2307;48.448;9.216;2023-11-21T08:36:20;95023.19;;;8.92;100.00
4590;BME280;2307;48.448;9.216;2023-11-21T08:38:48;95024.31;;;8.96;100.00
4590;BME280;2307;48.448;9.216;2023-11-21T08:41:16;95023.84;;;8.99;100.00
4590;BME280;2307;48.448;9.216;2023-11-21T08:43:42;95029.25;;;8.92;100.00
4590;BME280;2307;48.448;9.216;2023-11-21T08:46:09;95031.53;;;9.00;100.00
4590;BME280;2307;48.448;9.216;2023-11-21T08:48:36;95035.31;;;8.93;100.00
4590;BME280;2307;48.448;9.216;2023-11-21T08:51:03;95033.91;;;9.02;100.00
4590;BME280;2307;48.448;9.216;2023-11-21T08:53:30;95029.41;;;9.14;100.00
4590;BME280;2307;48.448;9.216;2023-11-21T08:55:56;95023.59;;;9.12;100.00
4590;BME280;2307;48.448;9.216;2023-11-21T08:58:25;95022.66;;;9.18;100.00
4590;BME280;2307;48.448;9.216;2023-11-21T09:00:51;95039.41;;;9.12;100.00
4590;BME280;2307;48.448;9.216;2023-11-21T09:03:17;95035.41;;;9.10;100.00
4590;BME280;2307;48.448;9.216;2023-11-21T09:05:44;95042.59;;;9.14;100.00
4590;BME280;2307;48.448;9.216;2023-11-21T09:08:10;95033.44;;;9.05;100.00
4590;BME280;2307;48.448;9.216;2023-11-21T09:10:36;95042.03;;;9.12;100.00
4590;BME280;2307;48.448;9.216;2023-11-21T09:13:04;95044.31;;;9.08;100.00
4590;BME280;2307;48.448;9.216;2023-11-21T09:15:32;95046.63;;;9.05;100.00
4590;BME280;2307;48.448;9.216;2023-11-21T09:17:58;95049.97;;;8.89;100.00
4590;BME280;2307;48.448;9.216;2023-11-21T09:20:25;95059.13;;;8.98;100.00
4590;BME280;2307;48.448;9.216;2023-11-21T09:22:52;95055.56;;;9.04;100.00
4590;BME280;2307;48.448;9.216;2023-11-21T09:25:19;95058.22;;;8.92;100.00
4590;BME280;2307;48.448;9.216;2023-11-21T09:27:46;95064.03;;;8.94;100.00
4590;BME280;2307;48.448;9.216;2023-11-21T09:30:12;95064.59;;;9.08;100.00
4590;BME280;2307;48.448;9.216;2023-11-21T09:32:40;95065.06;;;9.05;100.00
4590;BME280;2307;48.448;9.216;2023-11-21T09:35:10;95063.78;;;9.07;100.00
4590;BME280;2307;48.448;9.216;2023-11-21T09:37:36;95062.34;;;9.00;100.00
4590;BME280;2307;48.448;9.216;2023-11-21T09:40:04;95066.34;;;9.02;100.00
4590;BME280;2307;48.448;9.216;2023-11-21T09:42:38;95073.22;;;9.03;100.00
4590;BME280;2307;48.448;9.216;2023-11-21T09:45:08;95079.25;;;9.04;100.00
4590;BME280;2307;48.448;9.216;2023-11-21T09:47:38;95077.09;;;9.01;100.00
4590;BME280;2307;48.448;9.216;2023-11-21T09:50:06;95070.78;;;9.02;100.00
4590;BME280;2307;48.448;9.216;2023-11-21T09:52:35;95075.97;;;8.97;100.00
4590;BME280;2307;48.448;9.216;2023-11-21T09:55:07;95079.47;;;9.14;100.00
4590;BME280;2307;48.448;9.216;2023-11-21T09:57:33;95071.09;;;9.29;100.00
4590;BME280;2307;48.448;9.216;2023-11-21T10:00:00;95068.47;;;9.17;100.00
4590;BME280;2307;48.448;9.216;2023-11-21T10:02:30;95069.31;;;8.94;100.00
4590;BME280;2307;48.448;9.216;2023-11-21T10:04:58;95069.53;;;9.04;100.00
4590;BME280;2307;48.448;9.216;2023-11-21T10:07:26;95075.53;;;9.28;100.00
4590;BME280;2307;48.448;9.216;2023-11-21T10:09:53;95075.34;;;9.18;100.00
4590;BME280;2307;48.448;9.216;2023-11-21T10:12:21;95068.88;;;9.37;100.00
4590;BME280;2307;48.448;9.216;2023-11-21T10:14:51;95072.97;;;9.45;100.00
4590;BME280;2307;48.448;9.216;2023-11-21T10:17:19;95084.22;;;9.40;100.00
4590;BME280;2307;48.448;9.216;2023-11-21T10:19:47;95077.19;;;9.46;100.00
4590;BME280;2307;48.448;9.216;2023-11-21T10:22:13;95077.19;;;9.46;100.00
4590;BME280;2307;48.448;9.216;2023-11-21T10:24:42;95085.47;;;9.38;100.00
4590;BME280;2307;48.448;9.216;2023-11-21T10:27:09;95079.28;;;9.32;100.00
4590;BME280;2307;48.448;9.216;2023-11-21T10:29:35;95079.00;;;9.29;100.00
4590;BME280;2307;48.448;9.216;2023-11-21T10:32:02;95093.00;;;9.06;100.00
4590;BME280;2307;48.448;9.216;2023-11-21T10:34:28;95106.00;;;8.84;100.00
4590;BME280;2307;48.448;9.216;2023-11-21T10:36:55;95101.06;;;8.65;100.00
4590;BME280;2307;48.448;9.216;2023-11-21T10:39:23;95109.09;;;8.58;100.00
4590;BME280;2307;48.448;9.216;2023-11-21T10:41:54;95110.47;;;8.61;100.00
4590;BME280;2307;48.448;9.216;2023-11-21T10:44:21;95105.53;;;8.41;100.00
4590;BME280;2307;48.448;9.216;2023-11-21T10:46:49;95115.47;;;8.50;100.00
4590;BME280;2307;48.448;9.216;2023-11-21T10:49:17;95124.78;;;8.65;100.00
4590;BME280;2307;48.448;9.216;2023-11-21T10:51:44;95115.25;;;8.64;100.00
4590;BME280;2307;48.448;9.216;2023-11-21T10:54:10;95122.25;;;8.70;100.00
4590;BME280;2307;48.448;9.216;2023-11-21T10:56:37;95113.06;;;8.72;100.00
4590;BME280;2307;48.448;9.216;2023-11-21T10:59:08;95119.38;;;8.83;100.00
4590;BME280;2307;48.448;9.216;2023-11-21T11:01:36;95112.97;;;8.79;100.00
4590;BME280;2307;48.448;9.216;2023-11-21T11:04:03;95118.25;;;8.67;100.00
4590;BME280;2307;48.448;9.216;2023-11-21T11:06:34;95113.88;;;8.73;100.00
4590;BME280;2307;48.448;9.216;2023-11-21T11:09:04;95113.41;;;8.76;100.00
4590;BME280;2307;48.448;9.216;2023-11-21T11:11:30;95109.31;;;8.80;100.00
4590;BME280;2307;48.448;9.216;2023-11-21T11:13:56;95112.06;;;8.62;100.00
4590;BME280;2307;48.448;9.216;2023-11-21T11:16:26;95106.69;;;8.68;100.00
4590;BME280;2307;48.448;9.216;2023-11-21T11:18:53;95111.03;;;8.74;100.00
4590;BME280;2307;48.448;9.216;2023-11-21T11:21:23;95116.66;;;8.78;100.00
4590;BME280;2307;48.448;9.216;2023-11-21T11:23:56;95118.22;;;8.79;100.00
4590;BME280;2307;48.448;9.216;2023-11-21T11:26:28;95111.16;;;8.91;100.00
4590;BME280;2307;48.448;9.216;2023-11-21T11:28:57;95108.13;;;8.99;100.00
4590;BME280;2307;48.448;9.216;2023-11-21T11:31:35;95102.28;;;9.08;100.00
4590;BME280;2307;48.448;9.216;2023-11-21T11:34:05;95105.94;;;9.07;100.00
4590;BME280;2307;48.448;9.216;2023-11-21T11:36:39;95101.59;;;9.13;100.00
4590;BME280;2307;48.448;9.216;2023-11-21T11:41:51;95107.50;;;9.20;100.00
4590;BME280;2307;48.448;9.216;2023-11-21T11:47:01;95103.38;;;9.24;100.00
4590;BME280;2307;48.448;9.216;2023-11-21T11:49:28;95115.75;;;9.24;100.00
4590;BME280;2307;48.448;9.216;2023-11-21T11:54:37;95116.78;;;9.34;100.00
4590;BME280;2307;48.448;9.216;2023-11-21T11:57:03;95108.47;;;9.42;100.00
4590;BME280;2307;48.448;9.216;2023-11-21T11:59:30;95118.44;;;9.52;100.00
4590;BME280;2307;48.448;9.216;2023-11-21T12:01:56;95116.38;;;9.42;100.00
4590;BME280;2307;48.448;9.216;2023-11-21T12:04:24;95109.88;;;9.45;100.00
4590;BME280;2307;48.448;9.216;2023-11-21T12:06:56;95112.47;;;9.05;100.00
4590;BME280;2307;48.448;9.216;2023-11-21T12:09:25;95123.59;;;8.95;100.00
4590;BME280;2307;48.448;9.216;2023-11-21T12:11:52;95120.28;;;8.53;100.00
4590;BME280;2307;48.448;9.216;2023-11-21T12:14:19;95131.16;;;8.45;100.00
4590;BME280;2307;48.448;9.216;2023-11-21T12:16:46;95144.56;;;8.56;100.00
4590;BME280;2307;48.448;9.216;2023-11-21T12:19:13;95153.59;;;8.36;100.00
4590;BME280;2307;48.448;9.216;2023-11-21T12:21:41;95158.03;;;8.06;100.00
4590;BME280;2307;48.448;9.216;2023-11-21T12:24:09;95163.81;;;7.85;100.00
4590;BME280;2307;48.448;9.216;2023-11-21T12:26:38;95166.00;;;7.88;100.00
4590;BME280;2307;48.448;9.216;2023-11-21T12:29:05;95166.84;;;8.00;100.00
4590;BME280;2307;48.448;9.216;2023-11-21T12:31:32;95174.41;;;8.08;100.00
4590;BME280;2307;48.448;9.216;2023-11-21T12:33:59;95180.72;;;8.19;100.00
4590;BME280;2307;48.448;9.216;2023-11-21T12:36:26;95183.16;;;8.20;100.00
4590;BME280;2307;48.448;9.216;2023-11-21T12:38:55;95186.34;;;8.22;100.00
4590;BME280;2307;48.448;9.216;2023-11-21T12:41:22;95189.56;;;8.24;100.00
4590;BME280;2307;48.448;9.216;2023-11-21T12:43:48;95189.94;;;8.28;100.00
4590;BME280;2307;48.448;9.216;2023-11-21T12:46:14;95192.28;;;8.18;100.00
4590;BME280;2307;48.448;9.216;2023-11-21T12:48:42;95194.56;;;8.14;100.00
4590;BME280;2307;48.448;9.216;2023-11-21T12:51:09;95194.19;;;7.81;100.00
4590;BME280;2307;48.448;9.216;2023-11-21T12:53:37;95197.44;;;7.83;100.00
4590;BME280;2307;48.448;9.216;2023-11-21T12:56:07;95194.84;;;7.94;100.00
4590;BME280;2307;48.448;9.216;2023-11-21T12:58:34;95191.44;;;8.06;100.00
4590;BME280;2307;48.448;9.216;2023-11-21T13:01:00;95196.75;;;8.17;100.00
4590;BME280;2307;48.448;9.216;2023-11-21T13:03:29;95193.56;;;8.27;100.00
4590;BME280;2307;48.448;9.216;2023-11-21T13:05:56;95190.78;;;8.22;100.00
4590;BME280;2307;48.448;9.216;2023-11-21T13:08:24;95189.94;;;8.28;100.00
4590;BME280;2307;48.448;9.216;2023-11-21T13:10:51;95193.25;;;8.35;100.00
4590;BME280;2307;48.448;9.216;2023-11-21T13:13:20;95191.56;;;8.40;100.00
4590;BME280;2307;48.448;9.216;2023-11-21T13:15:47;95187.25;;;8.46;100.00
4590;BME280;2307;48.448;9.216;2023-11-21T13:18:13;95194.78;;;8.42;100.00
4590;BME280;2307;48.448;9.216;2023-11-21T13:20:41;95193.06;;;8.36;100.00
4590;BME280;2307;48.448;9.216;2023-11-21T13:23:08;95197.41;;;8.42;100.00
4590;BME280;2307;48.448;9.216;2023-11-21T13:25:37;95203.13;;;8.39;100.00
4590;BME280;2307;48.448;9.216;2023-11-21T13:28:04;95207.03;;;8.48;100.00
4590;BME280;2307;48.448;9.216;2023-11-21T13:30:32;95207.28;;;8.59;100.00